KCNC

Details ICAO KCNC
Name CHARITON MUNI
Region United States
Timezone America/Chicago (UTC-6.0)
Plans Departing 0
Arriving 5
Stats Elevation 1,050 ft / 320 m (AMSL)
Location 41.019616° -93.360390°
Runways 2
Magnetic Variation 0.643° E
Sunrise 2017-12-17 13:34:12 UTC / 2017-12-17 07:34:12 Local
Sunset 2017-12-17 22:47:54 UTC / 2017-12-17 16:47:54 Local
Advertisement - Login to hide

Runways

ID Width Length Bearing (true) Bearing (mag) Surface Threshold Offset Overrun Length
10 75 ft / 23 m 3,992 ft / 1,217 m 101.76° 101.12° Concrete 0 ft / 0 m 0 ft / 0 m
17 75 ft / 23 m 2,805 ft / 855 m 180.06° 179.42° Concrete 0 ft / 0 m 0 ft / 0 m
28 75 ft / 23 m 3,992 ft / 1,217 m 281.77° 281.13° Concrete 0 ft / 0 m 0 ft / 0 m
35 75 ft / 23 m 2,805 ft / 855 m 0.06° 359.42° Concrete 0 ft / 0 m 0 ft / 0 m

Map

Weather


0- 5 10 15 20 25 30 35+ Temperature / ° C

Clouds and Precipitation
Forecast for 2017-12-18 00:00 UTC. Updated an hour ago

Ground ~20,000 ft ~40,000 ft Winds

METAR

KCNC 172155Z AUTO 28004KT 5SM BR BKN005 BKN009 OVC012 04/03 A2996 RMK AO2

TAF

Not found

Frequencies

Recorded 125.52 MHz AWOS 3
Approach 135.20 MHz DES MOINES APP/DEP
Unicom 122.80 MHz CTAF/UNICOM
Warning: Do not use this data for real-world aviation or navigation. No guarantee of current accuracy is given.